sensor_id;sensor_type;location;lat;lon;timestamp;P1;durP1;ratioP1;P2;durP2;ratioP2
30635;SDS011;17400;52.392;9.750;2024-02-16T00:00:19;3.17;;;1.67;;
30635;SDS011;17400;52.392;9.750;2024-02-16T00:03:06;2.10;;;1.63;;
30635;SDS011;17400;52.392;9.750;2024-02-16T00:05:53;1.75;;;1.38;;
30635;SDS011;17400;52.392;9.750;2024-02-16T00:08:40;4.68;;;2.20;;
30635;SDS011;17400;52.392;9.750;2024-02-16T00:11:27;3.45;;;1.85;;
30635;SDS011;17400;52.392;9.750;2024-02-16T00:14:14;2.17;;;1.30;;
30635;SDS011;17400;52.392;9.750;2024-02-16T00:17:01;5.65;;;1.80;;
30635;SDS011;17400;52.392;9.750;2024-02-16T00:19:48;1.88;;;1.30;;
30635;SDS011;17400;52.392;9.750;2024-02-16T00:22:34;3.30;;;1.30;;
30635;SDS011;17400;52.392;9.750;2024-02-16T00:25:21;2.45;;;1.60;;
30635;SDS011;17400;52.392;9.750;2024-02-16T00:28:07;4.47;;;1.67;;
30635;SDS011;17400;52.392;9.750;2024-02-16T00:30:54;2.67;;;1.52;;
30635;SDS011;17400;52.392;9.750;2024-02-16T00:33:41;3.05;;;1.40;;
30635;SDS011;17400;52.392;9.750;2024-02-16T00:36:28;2.80;;;1.95;;
30635;SDS011;17400;52.392;9.750;2024-02-16T00:39:15;2.53;;;1.60;;
30635;SDS011;17400;52.392;9.750;2024-02-16T00:42:02;2.22;;;1.27;;
30635;SDS011;17400;52.392;9.750;2024-02-16T00:44:48;2.85;;;1.30;;
30635;SDS011;17400;52.392;9.750;2024-02-16T00:47:34;4.82;;;1.58;;
30635;SDS011;17400;52.392;9.750;2024-02-16T00:50:23;2.03;;;0.98;;
30635;SDS011;17400;52.392;9.750;2024-02-16T00:53:10;3.85;;;1.73;;
30635;SDS011;17400;52.392;9.750;2024-02-16T00:55:57;2.35;;;1.17;;
30635;SDS011;17400;52.392;9.750;2024-02-16T00:58:43;2.03;;;1.58;;
30635;SDS011;17400;52.392;9.750;2024-02-16T01:01:30;2.20;;;1.40;;
30635;SDS011;17400;52.392;9.750;2024-02-16T01:04:20;2.17;;;1.40;;
30635;SDS011;17400;52.392;9.750;2024-02-16T01:07:07;2.42;;;1.48;;
30635;SDS011;17400;52.392;9.750;2024-02-16T01:09:55;2.33;;;1.38;;
30635;SDS011;17400;52.392;9.750;2024-02-16T01:12:42;4.00;;;1.58;;
30635;SDS011;17400;52.392;9.750;2024-02-16T01:15:28;3.65;;;1.30;;
30635;SDS011;17400;52.392;9.750;2024-02-16T01:18:15;4.30;;;1.60;;
30635;SDS011;17400;52.392;9.750;2024-02-16T01:21:02;2.13;;;1.30;;
30635;SDS011;17400;52.392;9.750;2024-02-16T01:23:50;2.40;;;1.52;;
30635;SDS011;17400;52.392;9.750;2024-02-16T01:26:36;7.82;;;2.13;;
30635;SDS011;17400;52.392;9.750;2024-02-16T01:29:23;3.45;;;1.48;;
30635;SDS011;17400;52.392;9.750;2024-02-16T01:32:09;2.03;;;1.20;;
30635;SDS011;17400;52.392;9.750;2024-02-16T01:34:56;3.05;;;1.30;;
30635;SDS011;17400;52.392;9.750;2024-02-16T01:37:43;2.35;;;1.55;;
30635;SDS011;17400;52.392;9.750;2024-02-16T01:40:30;2.53;;;1.38;;
30635;SDS011;17400;52.392;9.750;2024-02-16T01:43:18;2.28;;;1.17;;
30635;SDS011;17400;52.392;9.750;2024-02-16T01:46:05;2.97;;;1.02;;
30635;SDS011;17400;52.392;9.750;2024-02-16T01:48:54;2.60;;;1.45;;
30635;SDS011;17400;52.392;9.750;2024-02-16T01:51:42;2.03;;;1.33;;
30635;SDS011;17400;52.392;9.750;2024-02-16T01:54:31;2.05;;;1.35;;
30635;SDS011;17400;52.392;9.750;2024-02-16T01:57:21;4.53;;;1.42;;
30635;SDS011;17400;52.392;9.750;2024-02-16T02:00:08;2.67;;;1.60;;
30635;SDS011;17400;52.392;9.750;2024-02-16T02:02:55;2.20;;;1.67;;
30635;SDS011;17400;52.392;9.750;2024-02-16T02:05:45;2.17;;;1.50;;
30635;SDS011;17400;52.392;9.750;2024-02-16T02:08:32;2.75;;;1.52;;
30635;SDS011;17400;52.392;9.750;2024-02-16T02:11:18;2.53;;;1.55;;
30635;SDS011;17400;52.392;9.750;2024-02-16T02:14:06;2.08;;;1.73;;
30635;SDS011;17400;52.392;9.750;2024-02-16T02:16:52;4.55;;;1.58;;
30635;SDS011;17400;52.392;9.750;2024-02-16T02:19:43;2.45;;;1.55;;
30635;SDS011;17400;52.392;9.750;2024-02-16T02:22:31;3.65;;;1.65;;
30635;SDS011;17400;52.392;9.750;2024-02-16T02:25:17;4.18;;;1.52;;
30635;SDS011;17400;52.392;9.750;2024-02-16T02:28:07;2.97;;;1.52;;
30635;SDS011;17400;52.392;9.750;2024-02-16T02:30:54;2.85;;;1.50;;
30635;SDS011;17400;52.392;9.750;2024-02-16T02:33:40;3.65;;;1.77;;
30635;SDS011;17400;52.392;9.750;2024-02-16T02:36:27;2.88;;;1.50;;
30635;SDS011;17400;52.392;9.750;2024-02-16T02:39:15;4.80;;;1.33;;
30635;SDS011;17400;52.392;9.750;2024-02-16T02:42:01;3.95;;;1.02;;
30635;SDS011;17400;52.392;9.750;2024-02-16T02:44:48;1.83;;;1.05;;
30635;SDS011;17400;52.392;9.750;2024-02-16T02:47:36;2.80;;;1.88;;
30635;SDS011;17400;52.392;9.750;2024-02-16T02:50:22;3.85;;;2.03;;
30635;SDS011;17400;52.392;9.750;2024-02-16T02:53:09;2.78;;;1.40;;
30635;SDS011;17400;52.392;9.750;2024-02-16T02:55:56;3.38;;;1.73;;
30635;SDS011;17400;52.392;9.750;2024-02-16T02:58:42;2.88;;;1.33;;
30635;SDS011;17400;52.392;9.750;2024-02-16T03:01:29;3.75;;;1.38;;
30635;SDS011;17400;52.392;9.750;2024-02-16T03:04:15;4.10;;;1.50;;
30635;SDS011;17400;52.392;9.750;2024-02-16T03:07:01;2.30;;;1.48;;
30635;SDS011;17400;52.392;9.750;2024-02-16T03:09:48;2.08;;;1.45;;
30635;SDS011;17400;52.392;9.750;2024-02-16T03:12:35;3.22;;;2.22;;
30635;SDS011;17400;52.392;9.750;2024-02-16T03:15:21;2.78;;;1.65;;
30635;SDS011;17400;52.392;9.750;2024-02-16T03:18:08;3.08;;;1.58;;
30635;SDS011;17400;52.392;9.750;2024-02-16T03:20:54;3.25;;;1.55;;
30635;SDS011;17400;52.392;9.750;2024-02-16T03:23:42;8.23;;;1.52;;
30635;SDS011;17400;52.392;9.750;2024-02-16T03:26:29;3.13;;;1.40;;
30635;SDS011;17400;52.392;9.750;2024-02-16T03:29:17;2.30;;;1.40;;
30635;SDS011;17400;52.392;9.750;2024-02-16T03:32:03;3.30;;;1.58;;
30635;SDS011;17400;52.392;9.750;2024-02-16T03:34:49;3.13;;;1.65;;
30635;SDS011;17400;52.392;9.750;2024-02-16T03:37:35;2.28;;;1.50;;
30635;SDS011;17400;52.392;9.750;2024-02-16T03:40:22;3.53;;;1.30;;
30635;SDS011;17400;52.392;9.750;2024-02-16T03:43:09;3.25;;;1.45;;
30635;SDS011;17400;52.392;9.750;2024-02-16T03:45:58;2.53;;;1.13;;
30635;SDS011;17400;52.392;9.750;2024-02-16T03:48:45;2.47;;;1.55;;
30635;SDS011;17400;52.392;9.750;2024-02-16T03:51:32;2.45;;;1.42;;
30635;SDS011;17400;52.392;9.750;2024-02-16T03:54:19;2.17;;;1.25;;
30635;SDS011;17400;52.392;9.750;2024-02-16T03:57:05;2.20;;;1.50;;
30635;SDS011;17400;52.392;9.750;2024-02-16T03:59:53;4.20;;;1.83;;
30635;SDS011;17400;52.392;9.750;2024-02-16T04:02:42;3.13;;;1.40;;
30635;SDS011;17400;52.392;9.750;2024-02-16T04:05:28;2.45;;;1.75;;
30635;SDS011;17400;52.392;9.750;2024-02-16T04:08:17;3.33;;;1.40;;
30635;SDS011;17400;52.392;9.750;2024-02-16T04:11:03;2.20;;;1.48;;
30635;SDS011;17400;52.392;9.750;2024-02-16T04:13:50;1.73;;;1.40;;
30635;SDS011;17400;52.392;9.750;2024-02-16T04:16:36;2.97;;;1.58;;
30635;SDS011;17400;52.392;9.750;2024-02-16T04:19:25;2.13;;;1.55;;
30635;SDS011;17400;52.392;9.750;2024-02-16T04:22:11;3.17;;;1.52;;
30635;SDS011;17400;52.392;9.750;2024-02-16T04:24:58;1.88;;;1.02;;
30635;SDS011;17400;52.392;9.750;2024-02-16T04:27:44;2.72;;;1.23;;
30635;SDS011;17400;52.392;9.750;2024-02-16T04:30:30;6.05;;;2.13;;
30635;SDS011;17400;52.392;9.750;2024-02-16T04:33:17;2.47;;;1.10;;
30635;SDS011;17400;52.392;9.750;2024-02-16T04:36:06;3.00;;;1.20;;
30635;SDS011;17400;52.392;9.750;2024-02-16T04:38:53;2.08;;;1.20;;
30635;SDS011;17400;52.392;9.750;2024-02-16T04:41:40;2.97;;;1.42;;
30635;SDS011;17400;52.392;9.750;2024-02-16T04:44:26;1.85;;;0.90;;
30635;SDS011;17400;52.392;9.750;2024-02-16T04:47:13;2.00;;;1.17;;
30635;SDS011;17400;52.392;9.750;2024-02-16T04:49:59;1.67;;;1.40;;
30635;SDS011;17400;52.392;9.750;2024-02-16T04:52:48;2.65;;;1.40;;
30635;SDS011;17400;52.392;9.750;2024-02-16T04:55:34;1.83;;;1.00;;
30635;SDS011;17400;52.392;9.750;2024-02-16T04:58:20;1.40;;;1.02;;
30635;SDS011;17400;52.392;9.750;2024-02-16T05:01:06;0.98;;;0.82;;
30635;SDS011;17400;52.392;9.750;2024-02-16T05:03:53;3.05;;;1.50;;
30635;SDS011;17400;52.392;9.750;2024-02-16T05:06:40;1.83;;;1.23;;
30635;SDS011;17400;52.392;9.750;2024-02-16T05:09:27;2.72;;;1.40;;
30635;SDS011;17400;52.392;9.750;2024-02-16T05:12:14;3.80;;;1.40;;
30635;SDS011;17400;52.392;9.750;2024-02-16T05:15:00;3.53;;;1.25;;
30635;SDS011;17400;52.392;9.750;2024-02-16T05:17:47;1.70;;;1.15;;
30635;SDS011;17400;52.392;9.750;2024-02-16T05:20:34;2.50;;;1.20;;
30635;SDS011;17400;52.392;9.750;2024-02-16T05:23:20;1.45;;;1.10;;
30635;SDS011;17400;52.392;9.750;2024-02-16T05:26:09;2.63;;;1.52;;
30635;SDS011;17400;52.392;9.750;2024-02-16T05:28:55;2.25;;;1.23;;
30635;SDS011;17400;52.392;9.750;2024-02-16T05:31:42;2.67;;;1.17;;
30635;SDS011;17400;52.392;9.750;2024-02-16T05:34:29;2.17;;;1.25;;
30635;SDS011;17400;52.392;9.750;2024-02-16T05:37:22;4.20;;;1.90;;
30635;SDS011;17400;52.392;9.750;2024-02-16T05:40:08;2.60;;;1.65;;
30635;SDS011;17400;52.392;9.750;2024-02-16T05:43:05;4.15;;;2.67;;
30635;SDS011;17400;52.392;9.750;2024-02-16T05:45:52;3.35;;;1.85;;
30635;SDS011;17400;52.392;9.750;2024-02-16T05:48:38;5.75;;;2.03;;
30635;SDS011;17400;52.392;9.750;2024-02-16T05:51:25;5.75;;;3.10;;
30635;SDS011;17400;52.392;9.750;2024-02-16T05:54:12;1.73;;;1.30;;
30635;SDS011;17400;52.392;9.750;2024-02-16T05:56:58;2.15;;;1.25;;
30635;SDS011;17400;52.392;9.750;2024-02-16T05:59:51;4.25;;;1.58;;
30635;SDS011;17400;52.392;9.750;2024-02-16T06:02:39;2.13;;;0.90;;
30635;SDS011;17400;52.392;9.750;2024-02-16T06:05:25;1.00;;;0.90;;
30635;SDS011;17400;52.392;9.750;2024-02-16T06:08:12;2.40;;;0.95;;
30635;SDS011;17400;52.392;9.750;2024-02-16T06:11:00;2.08;;;1.30;;
30635;SDS011;17400;52.392;9.750;2024-02-16T06:13:47;1.55;;;1.20;;
30635;SDS011;17400;52.392;9.750;2024-02-16T06:16:36;1.70;;;1.45;;
30635;SDS011;17400;52.392;9.750;2024-02-16T06:19:22;2.22;;;1.58;;
30635;SDS011;17400;52.392;9.750;2024-02-16T06:22:09;3.75;;;1.38;;
30635;SDS011;17400;52.392;9.750;2024-02-16T06:24:55;3.22;;;1.05;;
30635;SDS011;17400;52.392;9.750;2024-02-16T06:27:42;1.98;;;1.48;;
30635;SDS011;17400;52.392;9.750;2024-02-16T06:30:29;2.72;;;1.52;;
30635;SDS011;17400;52.392;9.750;2024-02-16T06:33:17;4.38;;;1.98;;
30635;SDS011;17400;52.392;9.750;2024-02-16T06:36:05;2.33;;;1.65;;
30635;SDS011;17400;52.392;9.750;2024-02-16T06:38:52;3.08;;;1.60;;
30635;SDS011;17400;52.392;9.750;2024-02-16T06:41:38;2.40;;;1.30;;
30635;SDS011;17400;52.392;9.750;2024-02-16T06:44:31;3.30;;;1.50;;
30635;SDS011;17400;52.392;9.750;2024-02-16T06:47:18;2.03;;;1.25;;
30635;SDS011;17400;52.392;9.750;2024-02-16T06:50:07;2.08;;;1.38;;
30635;SDS011;17400;52.392;9.750;2024-02-16T06:52:54;2.03;;;1.42;;
30635;SDS011;17400;52.392;9.750;2024-02-16T06:55:40;4.18;;;2.13;;
30635;SDS011;17400;52.392;9.750;2024-02-16T06:58:27;3.30;;;1.48;;
30635;SDS011;17400;52.392;9.750;2024-02-16T07:01:13;4.13;;;1.50;;
30635;SDS011;17400;52.392;9.750;2024-02-16T07:04:00;4.00;;;1.73;;
30635;SDS011;17400;52.392;9.750;2024-02-16T07:06:49;4.35;;;1.40;;
30635;SDS011;17400;52.392;9.750;2024-02-16T07:09:35;2.20;;;1.50;;
30635;SDS011;17400;52.392;9.750;2024-02-16T07:12:24;2.55;;;1.33;;
30635;SDS011;17400;52.392;9.750;2024-02-16T07:15:10;5.63;;;1.92;;
30635;SDS011;17400;52.392;9.750;2024-02-16T07:17:57;2.55;;;1.15;;
30635;SDS011;17400;52.392;9.750;2024-02-16T07:20:44;1.63;;;1.13;;
30635;SDS011;17400;52.392;9.750;2024-02-16T07:23:36;2.00;;;1.15;;
30635;SDS011;17400;52.392;9.750;2024-02-16T07:26:23;2.40;;;1.30;;
30635;SDS011;17400;52.392;9.750;2024-02-16T07:29:09;2.10;;;1.45;;
30635;SDS011;17400;52.392;9.750;2024-02-16T07:31:58;1.60;;;1.20;;
30635;SDS011;17400;52.392;9.750;2024-02-16T07:34:48;3.65;;;1.75;;
30635;SDS011;17400;52.392;9.750;2024-02-16T07:37:35;6.53;;;1.67;;
30635;SDS011;17400;52.392;9.750;2024-02-16T07:40:23;2.42;;;1.65;;
30635;SDS011;17400;52.392;9.750;2024-02-16T07:43:12;2.03;;;1.40;;
30635;SDS011;17400;52.392;9.750;2024-02-16T07:45:59;2.80;;;1.58;;
30635;SDS011;17400;52.392;9.750;2024-02-16T07:48:46;3.63;;;1.42;;
30635;SDS011;17400;52.392;9.750;2024-02-16T07:51:32;2.78;;;1.30;;
30635;SDS011;17400;52.392;9.750;2024-02-16T07:54:22;3.35;;;1.77;;
30635;SDS011;17400;52.392;9.750;2024-02-16T07:57:09;3.63;;;1.58;;
30635;SDS011;17400;52.392;9.750;2024-02-16T07:59:56;1.17;;;1.00;;
30635;SDS011;17400;52.392;9.750;2024-02-16T08:02:42;2.40;;;1.38;;
30635;SDS011;17400;52.392;9.750;2024-02-16T08:05:29;2.40;;;1.20;;
30635;SDS011;17400;52.392;9.750;2024-02-16T08:08:15;3.70;;;2.00;;
30635;SDS011;17400;52.392;9.750;2024-02-16T08:11:01;3.63;;;1.83;;
30635;SDS011;17400;52.392;9.750;2024-02-16T08:13:49;2.10;;;1.35;;
30635;SDS011;17400;52.392;9.750;2024-02-16T08:16:35;5.75;;;2.08;;
30635;SDS011;17400;52.392;9.750;2024-02-16T08:19:21;3.03;;;1.58;;
30635;SDS011;17400;52.392;9.750;2024-02-16T08:22:08;2.53;;;1.63;;
30635;SDS011;17400;52.392;9.750;2024-02-16T08:24:55;2.83;;;1.50;;
30635;SDS011;17400;52.392;9.750;2024-02-16T08:27:41;3.90;;;1.60;;
30635;SDS011;17400;52.392;9.750;2024-02-16T08:30:29;2.28;;;1.60;;
30635;SDS011;17400;52.392;9.750;2024-02-16T08:33:15;3.65;;;1.60;;
30635;SDS011;17400;52.392;9.750;2024-02-16T08:36:02;3.78;;;1.60;;
30635;SDS011;17400;52.392;9.750;2024-02-16T08:38:50;4.03;;;2.00;;
30635;SDS011;17400;52.392;9.750;2024-02-16T08:41:37;3.65;;;1.77;;
30635;SDS011;17400;52.392;9.750;2024-02-16T08:44:23;5.45;;;1.63;;
30635;SDS011;17400;52.392;9.750;2024-02-16T08:47:10;3.53;;;1.83;;
30635;SDS011;17400;52.392;9.750;2024-02-16T08:49:57;3.17;;;1.92;;
30635;SDS011;17400;52.392;9.750;2024-02-16T08:52:44;4.68;;;3.20;;
30635;SDS011;17400;52.392;9.750;2024-02-16T08:55:30;5.25;;;2.40;;
30635;SDS011;17400;52.392;9.750;2024-02-16T08:58:17;4.60;;;2.15;;
30635;SDS011;17400;52.392;9.750;2024-02-16T09:01:04;3.47;;;1.35;;
30635;SDS011;17400;52.392;9.750;2024-02-16T09:03:51;2.78;;;1.67;;
30635;SDS011;17400;52.392;9.750;2024-02-16T09:06:41;2.03;;;1.55;;
30635;SDS011;17400;52.392;9.750;2024-02-16T09:09:28;3.13;;;1.60;;
30635;SDS011;17400;52.392;9.750;2024-02-16T09:12:14;2.40;;;1.70;;
30635;SDS011;17400;52.392;9.750;2024-02-16T09:15:00;2.33;;;1.35;;
30635;SDS011;17400;52.392;9.750;2024-02-16T09:17:47;2.50;;;1.60;;
30635;SDS011;17400;52.392;9.750;2024-02-16T09:20:34;2.47;;;1.35;;
30635;SDS011;17400;52.392;9.750;2024-02-16T09:23:21;1.83;;;1.40;;
30635;SDS011;17400;52.392;9.750;2024-02-16T09:26:08;1.15;;;1.02;;
30635;SDS011;17400;52.392;9.750;2024-02-16T09:28:55;4.40;;;1.80;;
30635;SDS011;17400;52.392;9.750;2024-02-16T09:31:41;2.83;;;1.67;;
30635;SDS011;17400;52.392;9.750;2024-02-16T09:34:28;2.47;;;1.38;;
30635;SDS011;17400;52.392;9.750;2024-02-16T09:37:16;2.40;;;1.38;;
30635;SDS011;17400;52.392;9.750;2024-02-16T09:40:05;4.72;;;1.60;;
30635;SDS011;17400;52.392;9.750;2024-02-16T09:42:53;3.58;;;1.58;;
30635;SDS011;17400;52.392;9.750;2024-02-16T09:45:39;1.83;;;1.33;;
30635;SDS011;17400;52.392;9.750;2024-02-16T09:48:26;2.97;;;1.42;;
30635;SDS011;17400;52.392;9.750;2024-02-16T09:51:14;2.67;;;1.35;;
30635;SDS011;17400;52.392;9.750;2024-02-16T09:54:02;2.05;;;1.25;;
30635;SDS011;17400;52.392;9.750;2024-02-16T09:56:49;5.32;;;1.58;;
30635;SDS011;17400;52.392;9.750;2024-02-16T09:59:36;1.60;;;1.27;;
30635;SDS011;17400;52.392;9.750;2024-02-16T10:02:22;1.52;;;1.08;;
30635;SDS011;17400;52.392;9.750;2024-02-16T10:05:11;2.15;;;1.48;;
30635;SDS011;17400;52.392;9.750;2024-02-16T10:08:00;2.72;;;1.30;;
30635;SDS011;17400;52.392;9.750;2024-02-16T10:11:01;3.38;;;1.42;;
30635;SDS011;17400;52.392;9.750;2024-02-16T10:13:55;2.13;;;1.30;;
30635;SDS011;17400;52.392;9.750;2024-02-16T10:16:43;3.28;;;1.65;;
30635;SDS011;17400;52.392;9.750;2024-02-16T10:19:29;4.03;;;1.70;;
30635;SDS011;17400;52.392;9.750;2024-02-16T10:22:22;4.53;;;1.25;;
30635;SDS011;17400;52.392;9.750;2024-02-16T10:25:08;2.40;;;1.38;;
30635;SDS011;17400;52.392;9.750;2024-02-16T10:27:58;2.13;;;1.35;;
30635;SDS011;17400;52.392;9.750;2024-02-16T10:30:49;3.05;;;1.50;;
30635;SDS011;17400;52.392;9.750;2024-02-16T10:33:36;2.03;;;1.42;;
30635;SDS011;17400;52.392;9.750;2024-02-16T10:36:23;3.70;;;1.60;;
30635;SDS011;17400;52.392;9.750;2024-02-16T10:39:11;2.95;;;1.95;;
30635;SDS011;17400;52.392;9.750;2024-02-16T10:41:58;2.88;;;1.95;;
30635;SDS011;17400;52.392;9.750;2024-02-16T10:44:49;1.83;;;1.33;;
30635;SDS011;17400;52.392;9.750;2024-02-16T10:47:41;4.18;;;1.92;;
30635;SDS011;17400;52.392;9.750;2024-02-16T10:50:27;3.70;;;2.40;;
30635;SDS011;17400;52.392;9.750;2024-02-16T10:53:15;6.15;;;1.92;;
30635;SDS011;17400;52.392;9.750;2024-02-16T10:56:08;2.25;;;1.40;;
30635;SDS011;17400;52.392;9.750;2024-02-16T10:58:54;4.05;;;2.17;;
30635;SDS011;17400;52.392;9.750;2024-02-16T11:01:42;4.97;;;1.90;;
30635;SDS011;17400;52.392;9.750;2024-02-16T11:04:36;2.45;;;1.42;;
30635;SDS011;17400;52.392;9.750;2024-02-16T11:07:24;2.08;;;1.50;;
30635;SDS011;17400;52.392;9.750;2024-02-16T11:10:11;2.75;;;2.00;;
30635;SDS011;17400;52.392;9.750;2024-02-16T11:13:01;2.08;;;1.30;;
30635;SDS011;17400;52.392;9.750;2024-02-16T11:15:55;2.83;;;1.55;;
30635;SDS011;17400;52.392;9.750;2024-02-16T11:18:45;2.72;;;1.10;;
30635;SDS011;17400;52.392;9.750;2024-02-16T11:21:34;3.78;;;1.67;;
30635;SDS011;17400;52.392;9.750;2024-02-16T11:24:20;4.15;;;1.33;;
30635;SDS011;17400;52.392;9.750;2024-02-16T11:27:15;3.35;;;1.65;;
30635;SDS011;17400;52.392;9.750;2024-02-16T11:30:05;1.45;;;1.15;;
30635;SDS011;17400;52.392;9.750;2024-02-16T11:32:56;2.80;;;1.13;;
30635;SDS011;17400;52.392;9.750;2024-02-16T11:35:53;4.13;;;1.85;;
30635;SDS011;17400;52.392;9.750;2024-02-16T11:38:40;2.45;;;1.45;;
30635;SDS011;17400;52.392;9.750;2024-02-16T11:41:27;1.88;;;1.13;;
30635;SDS011;17400;52.392;9.750;2024-02-16T11:44:15;2.78;;;1.70;;
30635;SDS011;17400;52.392;9.750;2024-02-16T11:47:02;2.67;;;1.65;;
30635;SDS011;17400;52.392;9.750;2024-02-16T11:49:59;2.53;;;1.23;;
30635;SDS011;17400;52.392;9.750;2024-02-16T11:52:48;2.97;;;1.63;;
30635;SDS011;17400;52.392;9.750;2024-02-16T11:55:34;4.15;;;1.98;;
30635;SDS011;17400;52.392;9.750;2024-02-16T11:58:21;2.75;;;1.80;;
30635;SDS011;17400;52.392;9.750;2024-02-16T12:01:10;4.03;;;2.00;;
30635;SDS011;17400;52.392;9.750;2024-02-16T12:03:57;1.85;;;1.48;;
30635;SDS011;17400;52.392;9.750;2024-02-16T12:06:44;4.22;;;1.67;;
30635;SDS011;17400;52.392;9.750;2024-02-16T12:09:34;3.22;;;1.75;;
30635;SDS011;17400;52.392;9.750;2024-02-16T12:12:21;4.50;;;1.77;;
30635;SDS011;17400;52.392;9.750;2024-02-16T12:15:09;5.00;;;1.95;;
30635;SDS011;17400;52.392;9.750;2024-02-16T12:17:58;7.13;;;1.77;;
30635;SDS011;17400;52.392;9.750;2024-02-16T12:20:56;2.10;;;1.33;;
30635;SDS011;17400;52.392;9.750;2024-02-16T12:23:43;4.05;;;1.48;;
30635;SDS011;17400;52.392;9.750;2024-02-16T12:26:30;2.50;;;2.00;;
30635;SDS011;17400;52.392;9.750;2024-02-16T12:29:17;3.05;;;1.95;;
30635;SDS011;17400;52.392;9.750;2024-02-16T12:32:03;4.63;;;2.00;;
30635;SDS011;17400;52.392;9.750;2024-02-16T12:34:51;4.10;;;2.00;;
30635;SDS011;17400;52.392;9.750;2024-02-16T12:37:37;5.95;;;2.20;;
30635;SDS011;17400;52.392;9.750;2024-02-16T12:40:24;4.30;;;1.85;;
30635;SDS011;17400;52.392;9.750;2024-02-16T12:43:13;1.95;;;1.02;;
30635;SDS011;17400;52.392;9.750;2024-02-16T12:45:59;3.45;;;1.85;;
30635;SDS011;17400;52.392;9.750;2024-02-16T12:48:48;4.43;;;1.95;;
30635;SDS011;17400;52.392;9.750;2024-02-16T12:51:35;3.97;;;1.92;;
30635;SDS011;17400;52.392;9.750;2024-02-16T12:54:22;2.97;;;1.80;;
30635;SDS011;17400;52.392;9.750;2024-02-16T12:57:12;3.92;;;1.75;;
30635;SDS011;17400;52.392;9.750;2024-02-16T13:00:00;5.47;;;1.80;;
30635;SDS011;17400;52.392;9.750;2024-02-16T13:02:52;2.65;;;1.75;;
30635;SDS011;17400;52.392;9.750;2024-02-16T13:05:39;4.45;;;2.28;;
30635;SDS011;17400;52.392;9.750;2024-02-16T13:08:28;4.32;;;1.60;;
30635;SDS011;17400;52.392;9.750;2024-02-16T13:11:16;2.65;;;1.80;;
30635;SDS011;17400;52.392;9.750;2024-02-16T13:14:02;2.97;;;1.42;;
30635;SDS011;17400;52.392;9.750;2024-02-16T13:16:50;3.28;;;2.22;;
30635;SDS011;17400;52.392;9.750;2024-02-16T13:19:36;7.40;;;3.22;;
30635;SDS011;17400;52.392;9.750;2024-02-16T13:22:23;6.72;;;2.08;;
30635;SDS011;17400;52.392;9.750;2024-02-16T13:25:09;5.40;;;3.28;;
30635;SDS011;17400;52.392;9.750;2024-02-16T13:27:57;2.65;;;1.85;;
30635;SDS011;17400;52.392;9.750;2024-02-16T13:30:44;4.13;;;2.15;;
30635;SDS011;17400;52.392;9.750;2024-02-16T13:33:32;3.85;;;2.10;;
30635;SDS011;17400;52.392;9.750;2024-02-16T13:36:19;4.15;;;2.42;;
30635;SDS011;17400;52.392;9.750;2024-02-16T13:39:05;1.85;;;1.38;;
30635;SDS011;17400;52.392;9.750;2024-02-16T13:41:52;4.80;;;2.65;;
30635;SDS011;17400;52.392;9.750;2024-02-16T13:44:39;7.63;;;2.47;;
30635;SDS011;17400;52.392;9.750;2024-02-16T13:47:26;4.78;;;2.00;;
30635;SDS011;17400;52.392;9.750;2024-02-16T13:50:13;2.65;;;1.88;;
30635;SDS011;17400;52.392;9.750;2024-02-16T13:53:00;6.50;;;2.63;;
30635;SDS011;17400;52.392;9.750;2024-02-16T13:55:48;5.07;;;2.42;;
30635;SDS011;17400;52.392;9.750;2024-02-16T13:58:35;4.90;;;3.03;;
30635;SDS011;17400;52.392;9.750;2024-02-16T14:01:22;4.68;;;2.80;;
30635;SDS011;17400;52.392;9.750;2024-02-16T14:04:09;4.38;;;2.35;;
30635;SDS011;17400;52.392;9.750;2024-02-16T14:06:57;7.38;;;2.70;;
30635;SDS011;17400;52.392;9.750;2024-02-16T14:09:43;5.82;;;2.70;;
30635;SDS011;17400;52.392;9.750;2024-02-16T14:12:30;4.30;;;2.55;;
30635;SDS011;17400;52.392;9.750;2024-02-16T14:15:17;4.65;;;2.42;;
30635;SDS011;17400;52.392;9.750;2024-02-16T14:18:04;6.75;;;3.05;;
30635;SDS011;17400;52.392;9.750;2024-02-16T14:21:01;3.38;;;2.35;;
30635;SDS011;17400;52.392;9.750;2024-02-16T14:23:50;5.05;;;2.90;;
30635;SDS011;17400;52.392;9.750;2024-02-16T14:26:36;5.07;;;2.50;;
30635;SDS011;17400;52.392;9.750;2024-02-16T14:29:23;8.93;;;3.38;;
30635;SDS011;17400;52.392;9.750;2024-02-16T14:32:09;3.88;;;2.85;;
30635;SDS011;17400;52.392;9.750;2024-02-16T14:34:59;6.57;;;2.83;;
30635;SDS011;17400;52.392;9.750;2024-02-16T14:37:46;5.38;;;3.53;;
30635;SDS011;17400;52.392;9.750;2024-02-16T14:40:35;4.45;;;2.72;;
30635;SDS011;17400;52.392;9.750;2024-02-16T14:43:22;4.97;;;3.17;;
30635;SDS011;17400;52.392;9.750;2024-02-16T14:46:09;4.28;;;2.80;;
30635;SDS011;17400;52.392;9.750;2024-02-16T14:48:56;6.15;;;3.33;;
30635;SDS011;17400;52.392;9.750;2024-02-16T14:51:43;6.43;;;3.42;;
30635;SDS011;17400;52.392;9.750;2024-02-16T14:54:29;5.90;;;2.78;;
30635;SDS011;17400;52.392;9.750;2024-02-16T14:57:17;2.55;;;1.80;;
30635;SDS011;17400;52.392;9.750;2024-02-16T15:00:06;5.00;;;3.38;;
30635;SDS011;17400;52.392;9.750;2024-02-16T15:02:52;5.28;;;2.80;;
30635;SDS011;17400;52.392;9.750;2024-02-16T15:05:39;5.22;;;3.53;;
30635;SDS011;17400;52.392;9.750;2024-02-16T15:08:27;7.35;;;3.50;;
30635;SDS011;17400;52.392;9.750;2024-02-16T15:11:13;8.30;;;4.22;;
30635;SDS011;17400;52.392;9.750;2024-02-16T15:14:02;7.45;;;4.38;;
30635;SDS011;17400;52.392;9.750;2024-02-16T15:16:49;7.40;;;4.70;;
30635;SDS011;17400;52.392;9.750;2024-02-16T15:19:35;6.88;;;3.95;;
30635;SDS011;17400;52.392;9.750;2024-02-16T15:22:22;7.50;;;3.90;;
30635;SDS011;17400;52.392;9.750;2024-02-16T15:25:16;7.53;;;4.38;;
30635;SDS011;17400;52.392;9.750;2024-02-16T15:28:03;7.10;;;4.85;;
30635;SDS011;17400;52.392;9.750;2024-02-16T15:30:51;8.45;;;5.13;;
30635;SDS011;17400;52.392;9.750;2024-02-16T15:33:37;7.50;;;4.82;;
30635;SDS011;17400;52.392;9.750;2024-02-16T15:36:24;7.80;;;4.35;;
30635;SDS011;17400;52.392;9.750;2024-02-16T15:39:10;11.20;;;6.57;;
30635;SDS011;17400;52.392;9.750;2024-02-16T15:41:57;7.57;;;5.20;;
30635;SDS011;17400;52.392;9.750;2024-02-16T15:44:43;10.63;;;5.20;;
30635;SDS011;17400;52.392;9.750;2024-02-16T15:47:31;8.90;;;5.43;;
30635;SDS011;17400;52.392;9.750;2024-02-16T15:50:17;10.02;;;5.38;;
30635;SDS011;17400;52.392;9.750;2024-02-16T15:53:04;11.60;;;6.20;;
30635;SDS011;17400;52.392;9.750;2024-02-16T15:55:50;10.90;;;6.85;;
30635;SDS011;17400;52.392;9.750;2024-02-16T15:58:36;11.00;;;5.97;;
30635;SDS011;17400;52.392;9.750;2024-02-16T16:01:23;9.80;;;7.85;;
30635;SDS011;17400;52.392;9.750;2024-02-16T16:04:11;10.50;;;6.93;;
30635;SDS011;17400;52.392;9.750;2024-02-16T16:06:58;9.48;;;5.88;;
30635;SDS011;17400;52.392;9.750;2024-02-16T16:09:44;10.45;;;7.07;;
30635;SDS011;17400;52.392;9.750;2024-02-16T16:12:31;11.55;;;7.28;;
30635;SDS011;17400;52.392;9.750;2024-02-16T16:15:17;12.57;;;6.75;;
30635;SDS011;17400;52.392;9.750;2024-02-16T16:18:04;10.38;;;6.63;;
30635;SDS011;17400;52.392;9.750;2024-02-16T16:20:52;13.15;;;8.38;;
30635;SDS011;17400;52.392;9.750;2024-02-16T16:23:40;10.52;;;6.47;;
30635;SDS011;17400;52.392;9.750;2024-02-16T16:26:27;12.68;;;7.25;;
30635;SDS011;17400;52.392;9.750;2024-02-16T16:29:14;10.43;;;7.00;;
30635;SDS011;17400;52.392;9.750;2024-02-16T16:32:01;9.43;;;5.47;;
30635;SDS011;17400;52.392;9.750;2024-02-16T16:34:51;9.93;;;6.05;;
30635;SDS011;17400;52.392;9.750;2024-02-16T16:37:39;9.45;;;6.78;;
30635;SDS011;17400;52.392;9.750;2024-02-16T16:40:25;10.02;;;6.35;;
30635;SDS011;17400;52.392;9.750;2024-02-16T16:43:12;7.63;;;5.35;;
30635;SDS011;17400;52.392;9.750;2024-02-16T16:46:02;10.27;;;6.65;;
30635;SDS011;17400;52.392;9.750;2024-02-16T16:48:53;9.35;;;6.40;;